createdAt,value
2023-02-17T00:01:37.329Z,278.03
2023-02-17T00:04:05.724Z,218.70
2023-02-17T00:06:33.776Z,113.37
2023-02-17T00:09:03.808Z,128.77
2023-02-17T00:11:31.871Z,200.60
2023-02-17T00:14:00.573Z,150.70
2023-02-17T00:16:29.535Z,188.70
2023-02-17T00:18:59.606Z,320.17
2023-02-17T00:21:31.175Z,142.70
2023-02-17T00:23:59.769Z,98.80
2023-02-17T00:26:29.247Z,162.53
2023-02-17T00:28:59.023Z,164.57
2023-02-17T00:31:27.151Z,151.10
2023-02-17T00:33:56.176Z,104.77
2023-02-17T00:36:24.838Z,127.63
2023-02-17T00:38:54.468Z,205.20
2023-02-17T00:41:23.433Z,310.57
2023-02-17T00:43:52.932Z,214.93
2023-02-17T00:46:21.582Z,89.63
2023-02-17T00:48:50.319Z,79.93
2023-02-17T00:51:18.819Z,201.97
2023-02-17T00:53:47.291Z,132.17
2023-02-17T00:56:15.555Z,119.83
2023-02-17T00:58:44.232Z,87.77
2023-02-17T01:01:14.022Z,93.63
2023-02-17T01:03:42.349Z,145.63
2023-02-17T01:06:18.253Z,232.40
2023-02-17T01:08:46.261Z,295.13
2023-02-17T01:11:18.901Z,140.37
2023-02-17T01:13:47.002Z,121.47
2023-02-17T01:16:21.343Z,168.20
2023-02-17T01:18:49.636Z,131.73
2023-02-17T01:21:19.387Z,152.23
2023-02-17T01:23:49.277Z,95.57
2023-02-17T01:26:18.736Z,77.97
2023-02-17T01:28:47.414Z,184.30
2023-02-17T01:31:15.822Z,230.80
2023-02-17T01:33:45.265Z,121.13
2023-02-17T01:36:15.402Z,164.77
2023-02-17T01:38:43.747Z,213.10
2023-02-17T01:41:12.643Z,211.27
2023-02-17T01:43:40.955Z,153.70
2023-02-17T01:46:10.448Z,213.67
2023-02-17T01:48:44.397Z,180.40
2023-02-17T01:51:19.926Z,162.37
2023-02-17T01:53:51.972Z,110.70
2023-02-17T01:56:20.529Z,107.97
2023-02-17T01:59:02.352Z,138.03
2023-02-17T02:01:30.899Z,97.63
2023-02-17T02:04:01.422Z,211.10
2023-02-17T02:06:32.205Z,275.73
2023-02-17T02:09:07.835Z,267.63
2023-02-17T02:11:36.931Z,183.80
2023-02-17T02:14:08.220Z,272.80
2023-02-17T02:16:47.022Z,175.33
2023-02-17T02:19:42.872Z,176.70
2023-02-17T02:22:40.642Z,133.87
2023-02-17T02:25:26.280Z,414.73
2023-02-17T02:28:07.414Z,375.83
2023-02-17T02:31:01.771Z,400.60
2023-02-17T02:33:40.034Z,285.13
2023-02-17T02:36:13.911Z,170.87
2023-02-17T02:38:45.421Z,138.67
2023-02-17T02:41:18.897Z,201.50
2023-02-17T02:43:46.897Z,138.67
2023-02-17T02:46:15.082Z,235.80
2023-02-17T02:48:45.188Z,228.97
2023-02-17T02:51:34.639Z,223.60
2023-02-17T02:54:20.618Z,334.23
2023-02-17T02:57:19.965Z,256.37
2023-02-17T02:59:58.238Z,247.83
2023-02-17T03:02:35.206Z,266.40
2023-02-17T03:05:12.189Z,321.27
2023-02-17T03:07:44.708Z,181.93
2023-02-17T03:10:12.761Z,113.53
2023-02-17T03:12:41.096Z,263.47
2023-02-17T03:15:15.374Z,199.80
2023-02-17T03:17:43.472Z,165.83
2023-02-17T03:20:14.896Z,218.83
2023-02-17T03:22:46.240Z,149.13
2023-02-17T03:25:15.402Z,96.50
2023-02-17T03:27:43.542Z,265.60
2023-02-17T03:30:12.573Z,138.47
2023-02-17T03:32:41.625Z,90.87
2023-02-17T03:35:10.122Z,121.13
2023-02-17T03:37:39.588Z,395.97
2023-02-17T03:40:09.117Z,260.67
2023-02-17T03:42:37.207Z,184.47
2023-02-17T03:45:05.636Z,176.87
2023-02-17T03:47:33.667Z,193.20
2023-02-17T03:50:01.668Z,125.70
2023-02-17T03:52:29.683Z,146.23
2023-02-17T03:54:59.961Z,192.97
2023-02-17T03:57:28.054Z,302.57
2023-02-17T03:59:56.026Z,178.13
2023-02-17T04:02:24.115Z,123.10
2023-02-17T04:04:52.123Z,407.27
2023-02-17T04:07:20.177Z,130.57
2023-02-17T04:09:48.240Z,154.30
2023-02-17T04:12:17.622Z,621.70
2023-02-17T04:14:45.618Z,113.03
2023-02-17T04:17:13.676Z,250.67
2023-02-17T04:19:41.695Z,398.80
2023-02-17T04:22:09.855Z,157.83
2023-02-17T04:24:38.160Z,321.97
2023-02-17T04:27:06.404Z,144.17
2023-02-17T04:29:36.337Z,174.17
2023-02-17T04:32:04.604Z,105.37
2023-02-17T04:34:32.659Z,63.50
2023-02-17T04:37:00.666Z,146.27
2023-02-17T04:39:28.698Z,114.63
2023-02-17T04:41:56.689Z,262.73
2023-02-17T04:44:24.703Z,130.37
2023-02-17T04:46:54.136Z,179.50
2023-02-17T04:49:22.153Z,108.33
2023-02-17T04:51:50.130Z,105.70
2023-02-17T04:54:18.148Z,132.83
2023-02-17T04:56:46.208Z,342.43
2023-02-17T04:59:14.213Z,343.13
2023-02-17T05:01:42.221Z,354.33
2023-02-17T05:04:11.607Z,249.93
2023-02-17T05:06:39.657Z,162.87
2023-02-17T05:09:07.711Z,74.23
2023-02-17T05:11:35.714Z,205.63
2023-02-17T05:14:03.736Z,134.03
2023-02-17T05:16:31.743Z,273.93
2023-02-17T05:18:59.768Z,171.77
2023-02-17T05:21:29.250Z,173.70
2023-02-17T05:23:57.287Z,401.63
2023-02-17T05:26:25.524Z,178.47
2023-02-17T05:28:53.538Z,289.83
2023-02-17T05:31:21.719Z,156.10
2023-02-17T05:33:49.780Z,351.27
2023-02-17T05:36:17.784Z,317.00
2023-02-17T05:38:49.264Z,190.37
2023-02-17T05:41:17.702Z,332.57
2023-02-17T05:43:46.207Z,155.97
2023-02-17T05:46:14.795Z,178.77
2023-02-17T05:48:42.930Z,141.07
2023-02-17T05:51:10.945Z,90.27
2023-02-17T05:53:38.974Z,65.50
2023-02-17T05:56:08.955Z,106.77
2023-02-17T05:58:37.199Z,243.07
2023-02-17T06:01:09.481Z,285.00
2023-02-17T06:03:38.098Z,190.13
2023-02-17T06:06:07.430Z,274.80
2023-02-17T06:08:36.091Z,83.37
2023-02-17T06:11:04.196Z,319.70
2023-02-17T06:13:33.634Z,224.57
2023-02-17T06:16:01.883Z,218.40
2023-02-17T06:18:30.045Z,156.20
2023-02-17T06:20:58.594Z,154.70
2023-02-17T06:23:27.245Z,127.10
2023-02-17T06:25:55.815Z,151.77
2023-02-17T06:28:23.968Z,276.27
2023-02-17T06:30:53.434Z,347.97
2023-02-17T06:33:21.487Z,313.93
2023-02-17T06:35:50.975Z,242.37
2023-02-17T06:38:19.694Z,113.33
2023-02-17T06:40:48.029Z,183.80
2023-02-17T06:43:16.101Z,90.70
2023-02-17T06:45:44.140Z,191.80
2023-02-17T06:48:13.620Z,185.57
2023-02-17T06:50:41.657Z,129.20
2023-02-17T06:53:09.698Z,198.37
2023-02-17T06:55:39.568Z,64.90
2023-02-17T06:58:08.394Z,230.70
2023-02-17T07:00:36.530Z,158.50
2023-02-17T07:03:04.903Z,172.53
2023-02-17T07:05:36.060Z,105.77
2023-02-17T07:08:04.192Z,122.67
2023-02-17T07:10:32.320Z,76.00
2023-02-17T07:13:00.456Z,205.97
2023-02-17T07:15:28.544Z,190.57
2023-02-17T07:17:56.749Z,265.83
2023-02-17T07:20:24.873Z,312.93
2023-02-17T07:22:54.324Z,379.33
2023-02-17T07:25:22.435Z,157.10
2023-02-17T07:27:50.602Z,242.70
2023-02-17T07:30:19.122Z,188.67
2023-02-17T07:32:47.115Z,356.50
2023-02-17T07:35:15.195Z,103.17
2023-02-17T07:37:43.188Z,145.90
2023-02-17T07:40:13.681Z,103.90
2023-02-17T07:42:41.809Z,114.50
2023-02-17T07:45:10.185Z,217.50
2023-02-17T07:47:38.181Z,292.37
2023-02-17T07:50:09.871Z,172.10
2023-02-17T07:52:37.954Z,183.50
2023-02-17T07:55:06.629Z,405.67
2023-02-17T07:57:36.064Z,415.43
2023-02-17T08:00:04.828Z,147.83
2023-02-17T08:02:32.874Z,273.70
2023-02-17T08:05:00.868Z,358.20
2023-02-17T08:07:28.953Z,608.07
2023-02-17T08:10:14.427Z,323.27
2023-02-17T08:13:01.186Z,437.40
2023-02-17T08:15:29.285Z,196.37
2023-02-17T08:17:58.512Z,524.67
2023-02-17T08:20:26.546Z,442.93
2023-02-17T08:22:54.731Z,370.50
2023-02-17T08:25:22.758Z,498.50
2023-02-17T08:27:52.181Z,512.87
2023-02-17T08:30:20.515Z,256.67
2023-02-17T08:32:48.577Z,286.80
2023-02-17T08:35:17.991Z,115.63
2023-02-17T08:37:46.164Z,264.80
2023-02-17T08:40:14.438Z,478.87
2023-02-17T08:42:42.503Z,197.50
2023-02-17T08:45:14.116Z,235.60
2023-02-17T08:47:42.198Z,208.90
2023-02-17T08:50:11.624Z,261.20
2023-02-17T08:52:39.643Z,386.50
2023-02-17T08:55:08.083Z,660.60
2023-02-17T08:57:36.121Z,186.50
2023-02-17T09:00:06.817Z,400.57
2023-02-17T09:02:37.534Z,371.50
2023-02-17T09:05:06.415Z,325.83
2023-02-17T09:07:34.504Z,283.60
2023-02-17T09:10:02.549Z,487.73
2023-02-17T09:12:30.769Z,432.73
2023-02-17T09:14:58.888Z,235.83
2023-02-17T09:17:26.906Z,347.47
2023-02-17T09:19:56.343Z,326.70
2023-02-17T09:22:31.957Z,320.53
2023-02-17T09:25:00.513Z,302.37
2023-02-17T09:27:28.735Z,310.10
2023-02-17T09:29:56.961Z,293.20
2023-02-17T09:32:25.404Z,578.87
2023-02-17T09:34:54.168Z,144.87
2023-02-17T09:37:24.820Z,234.80
2023-02-17T09:39:52.845Z,465.90
2023-02-17T09:42:22.832Z,341.63
2023-02-17T09:44:54.791Z,358.67
2023-02-17T09:47:26.687Z,270.07
2023-02-17T09:49:58.187Z,224.00
2023-02-17T09:52:33.786Z,206.43
2023-02-17T09:55:06.175Z,305.93
2023-02-17T09:57:37.843Z,444.73
2023-02-17T10:00:11.511Z,159.93
2023-02-17T10:02:48.195Z,305.03
2023-02-17T10:05:21.096Z,364.83
2023-02-17T10:07:55.617Z,353.10
2023-02-17T10:10:27.387Z,215.10
2023-02-17T10:12:59.275Z,140.67
2023-02-17T10:15:31.358Z,132.47
2023-02-17T10:18:05.264Z,165.27
2023-02-17T10:20:36.722Z,227.07
2023-02-17T10:23:12.462Z,163.20
2023-02-17T10:25:52.433Z,166.00
2023-02-17T10:28:30.557Z,85.67
2023-02-17T10:31:04.363Z,85.47
2023-02-17T10:33:38.100Z,91.50
2023-02-17T10:36:18.135Z,76.13
2023-02-17T10:38:52.105Z,54.33
2023-02-17T10:41:24.999Z,322.67
2023-02-17T10:43:53.444Z,212.47
2023-02-17T10:46:29.141Z,318.03
2023-02-17T10:48:59.675Z,143.60
2023-02-17T10:51:30.439Z,517.13
2023-02-17T10:54:04.800Z,279.77
2023-02-17T10:56:39.491Z,333.93
2023-02-17T10:59:13.152Z,552.33
2023-02-17T11:01:42.250Z,362.07
2023-02-17T11:04:13.857Z,226.03
2023-02-17T11:06:45.161Z,379.93
2023-02-17T11:09:23.443Z,286.33
2023-02-17T11:12:00.220Z,469.53
2023-02-17T11:14:30.389Z,343.97
2023-02-17T11:17:00.726Z,469.97
2023-02-17T11:19:31.073Z,210.03
2023-02-17T11:22:00.496Z,359.27
2023-02-17T11:24:32.222Z,453.90
2023-02-17T11:27:02.213Z,576.70
2023-02-17T11:29:32.442Z,212.10
2023-02-17T11:32:04.782Z,363.60
2023-02-17T11:34:36.099Z,153.53
2023-02-17T11:37:20.273Z,214.07
2023-02-17T11:39:51.040Z,318.20
2023-02-17T11:42:23.629Z,620.13
2023-02-17T11:44:52.257Z,571.37
2023-02-17T11:47:30.995Z,269.10
2023-02-17T11:50:31.800Z,464.63
2023-02-17T11:53:21.462Z,640.23
2023-02-17T11:56:03.324Z,371.93
2023-02-17T11:58:45.317Z,560.87
2023-02-17T12:01:29.098Z,822.20
2023-02-17T12:04:26.589Z,714.17
2023-02-17T12:07:15.660Z,291.07
2023-02-17T12:09:51.774Z,395.20
2023-02-17T12:12:30.732Z,207.30
2023-02-17T12:15:07.910Z,591.80
2023-02-17T12:17:45.011Z,607.27
2023-02-17T12:20:34.176Z,694.67
2023-02-17T12:23:14.907Z,611.37
2023-02-17T12:25:50.906Z,729.87
2023-02-17T12:28:42.180Z,519.07
2023-02-17T12:31:19.131Z,294.10
2023-02-17T12:33:57.654Z,340.17
2023-02-17T12:36:31.483Z,539.50
2023-02-17T12:39:03.957Z,503.97
2023-02-17T12:41:36.506Z,529.40
2023-02-17T12:44:11.180Z,504.47
2023-02-17T12:46:42.517Z,809.60
2023-02-17T12:49:15.128Z,985.07
2023-02-17T12:51:46.884Z,359.33
2023-02-17T12:54:21.843Z,817.83
2023-02-17T12:57:17.319Z,698.90
2023-02-17T12:59:50.355Z,797.13
2023-02-17T13:02:20.274Z,690.07
2023-02-17T13:04:52.061Z,707.73
2023-02-17T13:07:27.592Z,567.10
2023-02-17T13:09:57.835Z,556.80
2023-02-17T13:12:36.838Z,589.53
2023-02-17T13:15:09.472Z,637.30
2023-02-17T13:17:40.638Z,681.37
2023-02-17T13:20:27.701Z,705.57
2023-02-17T13:23:07.440Z,645.40
2023-02-17T13:25:37.883Z,579.77
2023-02-17T13:28:33.336Z,752.30
2023-02-17T13:31:16.503Z,604.07
2023-02-17T13:33:48.303Z,546.67
2023-02-17T13:36:23.288Z,744.30
2023-02-17T13:39:01.703Z,935.63
2023-02-17T13:41:31.102Z,705.60
2023-02-17T13:43:59.144Z,525.13
2023-02-17T13:46:28.888Z,604.73
2023-02-17T13:49:02.958Z,513.93
2023-02-17T13:51:32.844Z,595.07
2023-02-17T13:54:08.253Z,580.07
2023-02-17T13:56:36.504Z,887.00
2023-02-17T13:59:09.584Z,568.00
2023-02-17T14:01:42.688Z,949.20
2023-02-17T14:04:21.861Z,579.97
2023-02-17T14:06:51.191Z,578.40
2023-02-17T14:09:24.751Z,567.93
2023-02-17T14:11:54.153Z,426.50
2023-02-17T14:14:23.586Z,461.53
2023-02-17T14:17:02.185Z,510.07
2023-02-17T14:19:30.674Z,558.97
2023-02-17T14:22:01.671Z,486.07
2023-02-17T14:24:32.563Z,441.97
2023-02-17T14:27:05.708Z,324.27
2023-02-17T14:29:41.688Z,391.57
2023-02-17T14:32:30.063Z,617.03
2023-02-17T14:35:09.804Z,641.00
2023-02-17T14:37:37.871Z,325.03
2023-02-17T14:40:07.118Z,408.97
2023-02-17T14:42:35.208Z,516.90
2023-02-17T14:45:03.202Z,507.37
2023-02-17T14:47:32.600Z,802.80
2023-02-17T14:50:00.636Z,484.27
2023-02-17T14:52:28.707Z,465.30
2023-02-17T14:54:56.739Z,398.03
2023-02-17T14:57:28.458Z,807.57
2023-02-17T14:59:57.814Z,638.17
2023-02-17T15:02:25.939Z,999.90
2023-02-17T15:04:55.376Z,991.53
2023-02-17T15:07:24.298Z,864.93
2023-02-17T15:09:52.335Z,840.03
2023-02-17T15:12:22.489Z,746.83
2023-02-17T15:14:50.464Z,955.10
2023-02-17T15:17:18.494Z,801.57
2023-02-17T15:19:46.547Z,857.70
2023-02-17T15:22:16.118Z,637.20
2023-02-17T15:24:44.219Z,916.40
2023-02-17T15:27:15.032Z,809.43
2023-02-17T15:29:43.135Z,914.90
2023-02-17T15:32:18.844Z,691.23
2023-02-17T15:34:47.472Z,759.67
2023-02-17T15:37:16.864Z,654.73
2023-02-17T15:39:44.875Z,877.10
2023-02-17T15:42:15.446Z,770.33
2023-02-17T15:44:49.057Z,930.40
2023-02-17T15:47:19.387Z,895.43
2023-02-17T15:49:47.747Z,611.77
2023-02-17T15:52:17.125Z,914.83
2023-02-17T15:54:48.310Z,707.33
2023-02-17T15:57:22.932Z,650.27
2023-02-17T15:59:51.273Z,802.53
2023-02-17T16:02:22.094Z,971.77
2023-02-17T16:04:50.270Z,787.70
2023-02-17T16:07:19.699Z,946.07
2023-02-17T16:09:47.745Z,410.73
2023-02-17T16:12:18.561Z,901.30
2023-02-17T16:14:46.667Z,692.93
2023-02-17T16:17:17.266Z,594.93
2023-02-17T16:19:45.313Z,540.17
2023-02-17T16:22:13.438Z,444.40
2023-02-17T16:24:42.862Z,725.30
2023-02-17T16:27:15.405Z,500.73
2023-02-17T16:29:44.072Z,890.97
2023-02-17T16:32:13.354Z,390.33
2023-02-17T16:34:42.917Z,484.23
2023-02-17T16:37:17.129Z,503.57
2023-02-17T16:39:47.135Z,794.83
2023-02-17T16:42:15.697Z,663.77
2023-02-17T16:44:44.259Z,706.17
2023-02-17T16:47:20.861Z,847.13
2023-02-17T16:49:50.440Z,763.63
2023-02-17T16:52:25.423Z,824.80
2023-02-17T16:54:54.973Z,849.03
2023-02-17T16:57:23.374Z,532.57
2023-02-17T16:59:51.641Z,688.33
2023-02-17T17:02:21.683Z,814.30
2023-02-17T17:04:49.942Z,457.23
2023-02-17T17:07:18.134Z,843.50
2023-02-17T17:10:06.777Z,560.67
2023-02-17T17:12:35.680Z,433.93
2023-02-17T17:15:04.394Z,608.70
2023-02-17T17:17:37.306Z,690.03
2023-02-17T17:20:05.621Z,480.33
2023-02-17T17:22:33.634Z,615.80
2023-02-17T17:25:01.636Z,234.80
2023-02-17T17:27:29.742Z,531.90
2023-02-17T17:29:59.158Z,483.53
2023-02-17T17:32:27.367Z,590.33
2023-02-17T17:34:56.056Z,578.67
2023-02-17T17:37:24.089Z,561.43
2023-02-17T17:39:52.116Z,416.13
2023-02-17T17:42:20.131Z,593.50
2023-02-17T17:44:48.145Z,345.73
2023-02-17T17:47:29.446Z,267.60
2023-02-17T17:49:58.206Z,304.00
2023-02-17T17:52:26.259Z,140.27
2023-02-17T17:54:54.298Z,786.43
2023-02-17T17:57:22.586Z,468.20
2023-02-17T17:59:50.725Z,361.53
2023-02-17T18:02:20.136Z,435.70
2023-02-17T18:04:48.325Z,273.57
2023-02-17T18:07:16.601Z,345.37
2023-02-17T18:09:44.675Z,337.70
2023-02-17T18:12:15.899Z,260.23
2023-02-17T18:14:45.175Z,339.23
2023-02-17T18:17:15.796Z,363.60
2023-02-17T18:19:45.825Z,275.13
2023-02-17T18:22:14.016Z,432.43
2023-02-17T18:24:42.182Z,517.53
2023-02-17T18:27:10.200Z,456.33
2023-02-17T18:29:38.167Z,373.77
2023-02-17T18:32:06.342Z,412.90
2023-02-17T18:34:34.695Z,366.93
2023-02-17T18:37:04.200Z,554.40
2023-02-17T18:39:32.198Z,462.13
2023-02-17T18:42:00.337Z,491.10
2023-02-17T18:44:28.793Z,382.83
2023-02-17T18:46:56.867Z,297.50
2023-02-17T18:49:24.881Z,282.40
2023-02-17T18:51:53.732Z,547.97
2023-02-17T18:54:23.151Z,406.93
2023-02-17T18:56:51.155Z,377.03
2023-02-17T18:59:19.457Z,698.60
2023-02-17T19:01:47.474Z,451.90
2023-02-17T19:04:16.298Z,408.60
2023-02-17T19:06:44.358Z,467.40
2023-02-17T19:09:12.363Z,193.53
2023-02-17T19:11:41.753Z,254.70
2023-02-17T19:14:09.728Z,229.23
2023-02-17T19:16:39.191Z,324.23
2023-02-17T19:19:07.179Z,188.23
2023-02-17T19:21:36.420Z,268.77
2023-02-17T19:24:04.794Z,645.43
2023-02-17T19:26:34.131Z,436.63
2023-02-17T19:29:03.636Z,561.50
2023-02-17T19:31:31.800Z,383.90
2023-02-17T19:33:59.921Z,265.90
2023-02-17T19:36:28.097Z,446.33
2023-02-17T19:38:57.734Z,399.97
2023-02-17T19:41:25.811Z,137.67
2023-02-17T19:43:53.882Z,148.93
2023-02-17T19:46:25.606Z,119.03
2023-02-17T19:48:53.766Z,367.50
2023-02-17T19:51:22.200Z,357.77
2023-02-17T19:53:50.199Z,193.03
2023-02-17T19:56:20.299Z,215.23
2023-02-17T19:58:49.529Z,154.53
2023-02-17T20:01:19.695Z,362.47
2023-02-17T20:03:49.424Z,279.27
2023-02-17T20:06:21.067Z,406.03
2023-02-17T20:08:54.035Z,139.03
2023-02-17T20:11:22.166Z,331.80
2023-02-17T20:13:50.257Z,313.53
2023-02-17T20:16:19.169Z,297.60
2023-02-17T20:18:50.373Z,394.37
2023-02-17T20:21:19.845Z,185.87
2023-02-17T20:23:47.894Z,383.47
2023-02-17T20:26:19.879Z,379.10
2023-02-17T20:28:48.230Z,176.27
2023-02-17T20:31:16.924Z,197.83
2023-02-17T20:33:45.140Z,133.90
2023-02-17T20:36:14.618Z,186.17
2023-02-17T20:38:43.338Z,66.57
2023-02-17T20:41:15.214Z,350.10
2023-02-17T20:43:43.243Z,199.00
2023-02-17T20:46:15.151Z,824.47
2023-02-17T20:48:43.160Z,163.33
2023-02-17T20:51:11.172Z,216.43
2023-02-17T20:53:40.574Z,68.67
2023-02-17T20:56:14.163Z,232.60
2023-02-17T20:58:42.685Z,505.93
2023-02-17T21:01:10.870Z,316.63
2023-02-17T21:03:39.202Z,722.30
2023-02-17T21:06:20.040Z,450.13
2023-02-17T21:08:51.687Z,411.63
2023-02-17T21:11:19.720Z,204.70
2023-02-17T21:13:48.013Z,146.70
2023-02-17T21:16:18.816Z,388.50
2023-02-17T21:18:47.946Z,647.67
2023-02-17T21:21:16.467Z,213.47
2023-02-17T21:23:44.960Z,167.90
2023-02-17T21:26:14.812Z,486.03
2023-02-17T21:28:43.126Z,350.23
2023-02-17T21:31:11.402Z,297.90
2023-02-17T21:33:42.083Z,471.30
2023-02-17T21:36:11.464Z,364.27
2023-02-17T21:38:39.616Z,447.07
2023-02-17T21:41:10.637Z,406.07
2023-02-17T21:43:58.257Z,437.50
2023-02-17T21:46:26.875Z,287.90
2023-02-17T21:48:55.968Z,135.47
2023-02-17T21:51:24.711Z,563.53
2023-02-17T21:53:53.614Z,741.73
2023-02-17T21:56:22.484Z,517.47
2023-02-17T21:58:53.715Z,641.87
2023-02-17T22:01:23.192Z,275.07
2023-02-17T22:03:51.216Z,473.67
2023-02-17T22:06:21.196Z,618.60
2023-02-17T22:08:49.192Z,691.00
2023-02-17T22:11:19.421Z,591.40
2023-02-17T22:13:47.447Z,578.77
2023-02-17T22:16:16.902Z,575.47
2023-02-17T22:18:44.931Z,640.83
2023-02-17T22:21:14.785Z,355.80
2023-02-17T22:23:43.633Z,593.37
2023-02-17T22:26:14.006Z,440.20
2023-02-17T22:28:42.063Z,867.37
2023-02-17T22:31:12.744Z,343.97
2023-02-17T22:33:42.380Z,470.37
2023-02-17T22:36:12.497Z,582.53
2023-02-17T22:38:40.656Z,497.20
2023-02-17T22:41:10.239Z,346.67
2023-02-17T22:43:39.880Z,384.43
2023-02-17T22:46:09.666Z,573.50
2023-02-17T22:48:39.540Z,635.43
2023-02-17T22:51:11.631Z,519.50
2023-02-17T22:53:40.296Z,844.57
2023-02-17T22:56:09.367Z,616.40
2023-02-17T22:58:38.086Z,549.50
2023-02-17T23:01:07.619Z,763.17
2023-02-17T23:03:36.330Z,711.00
2023-02-17T23:06:06.918Z,999.90
2023-02-17T23:08:36.634Z,555.43
2023-02-17T23:11:06.340Z,571.53
2023-02-17T23:13:35.168Z,389.90
2023-02-17T23:16:03.725Z,580.57
2023-02-17T23:18:33.696Z,172.07
2023-02-17T23:21:07.602Z,501.03
2023-02-17T23:23:36.984Z,761.50
2023-02-17T23:26:06.485Z,322.27
2023-02-17T23:28:35.406Z,364.00
2023-02-17T23:31:03.479Z,509.90
2023-02-17T23:33:31.495Z,799.17
2023-02-17T23:35:59.539Z,523.43
2023-02-17T23:38:27.585Z,578.93
2023-02-17T23:40:57.026Z,613.33
2023-02-17T23:43:25.174Z,509.13
2023-02-17T23:45:56.829Z,732.33
2023-02-17T23:48:25.170Z,313.47
2023-02-17T23:50:57.337Z,834.37
2023-02-17T23:53:25.692Z,533.77
2023-02-17T23:56:04.345Z,532.07
2023-02-17T23:58:32.779Z,492.77
